Aviation Digital Data Service (ADDS)

Output produced by TAFs form (0052 UTC 21 November 2017)
found at http://www.aviationweather.gov/adds/tafs/
 
METAR text: RJCA 210032Z 24007KT 9999 -SHSN FEW010 SCT020 BKN035 M03/M09 Q1021 RMK 2ST010 4CU020 7CU035 A3016
Conditions at: RJCA (ASAHIKAWA (JASDF, JP) observed 0032 UTC 21 November 2017
Temperature: -3.0°C (27°F)
Dewpoint: -9.0°C (16°F) [RH = 63%]
Pressure (altimeter): 30.15 inches Hg (1021.0 mb)
Winds: from the WSW (240 degrees) at 8 MPH (7 knots; 3.6 m/s)
Visibility: 6 or more miles (10+ km)
Ceiling: 3500 feet AGL
Clouds: few clouds at 1000 feet AGL
scattered clouds at 2000 feet AGL
broken clouds at 3500 feet AGL
Weather: -SHSN  (light snow showers)